sensor_id;sensor_type;location;lat;lon;timestamp;P1;durP1;ratioP1;P2;durP2;ratioP2
38123;SDS011;23934;47.998;9.832;2022-12-29T00:02:07;1.38;;;0.90;;
38123;SDS011;23934;47.998;9.832;2022-12-29T00:04:33;3.60;;;1.10;;
38123;SDS011;23934;47.998;9.832;2022-12-29T00:06:59;1.50;;;1.13;;
38123;SDS011;23934;47.998;9.832;2022-12-29T00:09:26;2.25;;;0.93;;
38123;SDS011;23934;47.998;9.832;2022-12-29T00:11:52;1.58;;;0.77;;
38123;SDS011;23934;47.998;9.832;2022-12-29T00:14:18;49.30;;;10.73;;
38123;SDS011;23934;47.998;9.832;2022-12-29T00:17:02;69.18;;;16.30;;
38123;SDS011;23934;47.998;9.832;2022-12-29T00:19:28;45.78;;;10.10;;
38123;SDS011;23934;47.998;9.832;2022-12-29T00:22:13;4.13;;;2.20;;
38123;SDS011;23934;47.998;9.832;2022-12-29T00:24:58;2.88;;;1.23;;
38123;SDS011;23934;47.998;9.832;2022-12-29T00:27:33;3.30;;;1.25;;
38123;SDS011;23934;47.998;9.832;2022-12-29T00:30:20;1.20;;;0.95;;
38123;SDS011;23934;47.998;9.832;2022-12-29T00:33:18;1.48;;;1.13;;
38123;SDS011;23934;47.998;9.832;2022-12-29T00:38:44;3.75;;;0.70;;
38123;SDS011;23934;47.998;9.832;2022-12-29T00:41:29;1.95;;;1.00;;
38123;SDS011;23934;47.998;9.832;2022-12-29T00:44:14;3.25;;;1.00;;
38123;SDS011;23934;47.998;9.832;2022-12-29T00:46:40;1.65;;;0.88;;
38123;SDS011;23934;47.998;9.832;2022-12-29T00:49:08;2.67;;;1.00;;
38123;SDS011;23934;47.998;9.832;2022-12-29T00:51:53;1.80;;;0.55;;
38123;SDS011;23934;47.998;9.832;2022-12-29T00:54:19;2.67;;;0.75;;
38123;SDS011;23934;47.998;9.832;2022-12-29T00:56:46;3.13;;;0.70;;
38123;SDS011;23934;47.998;9.832;2022-12-29T00:59:12;1.77;;;0.90;;
38123;SDS011;23934;47.998;9.832;2022-12-29T01:01:38;2.25;;;0.80;;
38123;SDS011;23934;47.998;9.832;2022-12-29T01:04:05;1.02;;;0.63;;
38123;SDS011;23934;47.998;9.832;2022-12-29T01:06:31;2.33;;;1.00;;
38123;SDS011;23934;47.998;9.832;2022-12-29T01:08:57;1.63;;;0.70;;
38123;SDS011;23934;47.998;9.832;2022-12-29T01:11:42;1.00;;;0.60;;
38123;SDS011;23934;47.998;9.832;2022-12-29T01:14:08;2.67;;;1.05;;
38123;SDS011;23934;47.998;9.832;2022-12-29T01:16:34;1.35;;;0.80;;
38123;SDS011;23934;47.998;9.832;2022-12-29T01:19:01;1.83;;;1.08;;
38123;SDS011;23934;47.998;9.832;2022-12-29T01:21:27;1.73;;;0.75;;
38123;SDS011;23934;47.998;9.832;2022-12-29T01:23:53;2.13;;;1.05;;
38123;SDS011;23934;47.998;9.832;2022-12-29T01:26:19;1.05;;;0.57;;
38123;SDS011;23934;47.998;9.832;2022-12-29T01:28:45;1.38;;;0.85;;
38123;SDS011;23934;47.998;9.832;2022-12-29T01:31:12;2.92;;;1.17;;
38123;SDS011;23934;47.998;9.832;2022-12-29T01:33:38;2.40;;;1.00;;
38123;SDS011;23934;47.998;9.832;2022-12-29T01:36:05;1.08;;;0.80;;
38123;SDS011;23934;47.998;9.832;2022-12-29T01:38:32;2.20;;;1.08;;
38123;SDS011;23934;47.998;9.832;2022-12-29T01:40:58;1.17;;;0.77;;
38123;SDS011;23934;47.998;9.832;2022-12-29T01:46:07;2.78;;;0.80;;
38123;SDS011;23934;47.998;9.832;2022-12-29T01:48:35;1.90;;;0.65;;
38123;SDS011;23934;47.998;9.832;2022-12-29T01:51:01;0.85;;;0.70;;
38123;SDS011;23934;47.998;9.832;2022-12-29T01:53:27;3.25;;;1.05;;
38123;SDS011;23934;47.998;9.832;2022-12-29T01:55:56;1.95;;;0.85;;
38123;SDS011;23934;47.998;9.832;2022-12-29T01:58:24;2.63;;;0.85;;
38123;SDS011;23934;47.998;9.832;2022-12-29T02:00:52;0.88;;;0.63;;
38123;SDS011;23934;47.998;9.832;2022-12-29T02:03:18;1.23;;;0.70;;
38123;SDS011;23934;47.998;9.832;2022-12-29T02:05:47;1.33;;;0.68;;
38123;SDS011;23934;47.998;9.832;2022-12-29T02:08:14;2.45;;;0.77;;
38123;SDS011;23934;47.998;9.832;2022-12-29T02:10:40;1.75;;;0.90;;
38123;SDS011;23934;47.998;9.832;2022-12-29T02:13:07;2.45;;;0.90;;
38123;SDS011;23934;47.998;9.832;2022-12-29T02:20:41;2.67;;;0.70;;
38123;SDS011;23934;47.998;9.832;2022-12-29T02:31:03;1.77;;;0.82;;
38123;SDS011;23934;47.998;9.832;2022-12-29T02:38:56;2.45;;;1.10;;
38123;SDS011;23934;47.998;9.832;2022-12-29T02:41:32;1.75;;;0.80;;
38123;SDS011;23934;47.998;9.832;2022-12-29T02:44:04;1.88;;;0.90;;
38123;SDS011;23934;47.998;9.832;2022-12-29T02:46:44;4.30;;;0.85;;
38123;SDS011;23934;47.998;9.832;2022-12-29T02:51:50;0.93;;;0.57;;
38123;SDS011;23934;47.998;9.832;2022-12-29T02:54:18;1.20;;;0.80;;
38123;SDS011;23934;47.998;9.832;2022-12-29T02:57:05;2.67;;;1.17;;
38123;SDS011;23934;47.998;9.832;2022-12-29T02:59:34;4.05;;;0.73;;
38123;SDS011;23934;47.998;9.832;2022-12-29T03:02:06;0.75;;;0.50;;
38123;SDS011;23934;47.998;9.832;2022-12-29T03:04:50;1.92;;;0.68;;
38123;SDS011;23934;47.998;9.832;2022-12-29T03:07:23;1.58;;;0.60;;
38123;SDS011;23934;47.998;9.832;2022-12-29T03:10:14;1.70;;;0.77;;
38123;SDS011;23934;47.998;9.832;2022-12-29T03:15:32;2.13;;;0.75;;
38123;SDS011;23934;47.998;9.832;2022-12-29T03:18:25;1.90;;;0.82;;
38123;SDS011;23934;47.998;9.832;2022-12-29T03:21:16;6.78;;;0.80;;
38123;SDS011;23934;47.998;9.832;2022-12-29T03:23:40;1.38;;;0.60;;
38123;SDS011;23934;47.998;9.832;2022-12-29T03:26:08;5.65;;;1.35;;
38123;SDS011;23934;47.998;9.832;2022-12-29T03:28:36;1.25;;;0.90;;
38123;SDS011;23934;47.998;9.832;2022-12-29T03:31:04;2.03;;;0.82;;
38123;SDS011;23934;47.998;9.832;2022-12-29T03:33:30;2.42;;;0.95;;
38123;SDS011;23934;47.998;9.832;2022-12-29T03:35:58;1.08;;;0.70;;
38123;SDS011;23934;47.998;9.832;2022-12-29T03:38:27;3.17;;;0.80;;
38123;SDS011;23934;47.998;9.832;2022-12-29T03:40:55;0.93;;;0.65;;
38123;SDS011;23934;47.998;9.832;2022-12-29T03:43:22;2.30;;;1.20;;
38123;SDS011;23934;47.998;9.832;2022-12-29T03:45:48;1.33;;;0.68;;
38123;SDS011;23934;47.998;9.832;2022-12-29T03:48:14;1.98;;;0.90;;
38123;SDS011;23934;47.998;9.832;2022-12-29T03:50:40;1.50;;;0.98;;
38123;SDS011;23934;47.998;9.832;2022-12-29T03:53:06;0.43;;;0.40;;
38123;SDS011;23934;47.998;9.832;2022-12-29T03:55:32;1.33;;;0.85;;
38123;SDS011;23934;47.998;9.832;2022-12-29T03:57:58;1.52;;;0.65;;
38123;SDS011;23934;47.998;9.832;2022-12-29T04:00:24;3.20;;;1.00;;
38123;SDS011;23934;47.998;9.832;2022-12-29T04:02:50;2.15;;;1.00;;
38123;SDS011;23934;47.998;9.832;2022-12-29T04:05:16;1.00;;;0.90;;
38123;SDS011;23934;47.998;9.832;2022-12-29T04:07:42;3.15;;;1.27;;
38123;SDS011;23934;47.998;9.832;2022-12-29T04:10:08;2.47;;;1.15;;
38123;SDS011;23934;47.998;9.832;2022-12-29T04:12:34;4.70;;;1.23;;
38123;SDS011;23934;47.998;9.832;2022-12-29T04:15:00;1.27;;;0.60;;
38123;SDS011;23934;47.998;9.832;2022-12-29T04:17:26;1.33;;;0.75;;
38123;SDS011;23934;47.998;9.832;2022-12-29T04:19:52;4.03;;;0.93;;
38123;SDS011;23934;47.998;9.832;2022-12-29T04:22:38;3.20;;;1.08;;
38123;SDS011;23934;47.998;9.832;2022-12-29T04:25:04;3.17;;;0.98;;
38123;SDS011;23934;47.998;9.832;2022-12-29T04:27:30;2.40;;;1.20;;
38123;SDS011;23934;47.998;9.832;2022-12-29T04:29:56;2.15;;;0.88;;
38123;SDS011;23934;47.998;9.832;2022-12-29T04:32:22;3.67;;;1.00;;
38123;SDS011;23934;47.998;9.832;2022-12-29T04:34:48;2.85;;;1.08;;
38123;SDS011;23934;47.998;9.832;2022-12-29T04:37:14;1.20;;;0.88;;
38123;SDS011;23934;47.998;9.832;2022-12-29T04:39:40;1.52;;;0.93;;
38123;SDS011;23934;47.998;9.832;2022-12-29T04:42:06;1.98;;;0.80;;
38123;SDS011;23934;47.998;9.832;2022-12-29T04:44:31;4.82;;;1.10;;
38123;SDS011;23934;47.998;9.832;2022-12-29T04:46:57;3.92;;;1.45;;
38123;SDS011;23934;47.998;9.832;2022-12-29T04:49:23;1.77;;;0.90;;
38123;SDS011;23934;47.998;9.832;2022-12-29T04:51:49;1.63;;;0.88;;
38123;SDS011;23934;47.998;9.832;2022-12-29T04:54:15;8.10;;;1.35;;
38123;SDS011;23934;47.998;9.832;2022-12-29T04:56:41;0.85;;;0.68;;
38123;SDS011;23934;47.998;9.832;2022-12-29T04:59:07;1.13;;;0.80;;
38123;SDS011;23934;47.998;9.832;2022-12-29T05:01:33;2.20;;;1.00;;
38123;SDS011;23934;47.998;9.832;2022-12-29T05:03:59;3.55;;;1.40;;
38123;SDS011;23934;47.998;9.832;2022-12-29T05:06:25;2.78;;;1.00;;
38123;SDS011;23934;47.998;9.832;2022-12-29T05:08:51;1.98;;;1.00;;
38123;SDS011;23934;47.998;9.832;2022-12-29T05:11:17;1.75;;;0.82;;
38123;SDS011;23934;47.998;9.832;2022-12-29T05:13:46;2.22;;;1.08;;
38123;SDS011;23934;47.998;9.832;2022-12-29T05:16:12;2.38;;;1.13;;
38123;SDS011;23934;47.998;9.832;2022-12-29T05:18:38;3.47;;;2.08;;
38123;SDS011;23934;47.998;9.832;2022-12-29T05:21:03;2.22;;;1.02;;
38123;SDS011;23934;47.998;9.832;2022-12-29T05:23:29;2.10;;;1.02;;
38123;SDS011;23934;47.998;9.832;2022-12-29T05:25:55;3.05;;;1.40;;
38123;SDS011;23934;47.998;9.832;2022-12-29T05:28:21;3.20;;;1.40;;
38123;SDS011;23934;47.998;9.832;2022-12-29T05:30:48;1.80;;;0.90;;
38123;SDS011;23934;47.998;9.832;2022-12-29T05:33:15;3.00;;;1.40;;
38123;SDS011;23934;47.998;9.832;2022-12-29T05:35:41;0.82;;;0.77;;
38123;SDS011;23934;47.998;9.832;2022-12-29T05:38:07;6.65;;;1.08;;
38123;SDS011;23934;47.998;9.832;2022-12-29T05:40:33;3.45;;;0.90;;
38123;SDS011;23934;47.998;9.832;2022-12-29T05:42:58;2.00;;;1.02;;
38123;SDS011;23934;47.998;9.832;2022-12-29T05:45:24;2.63;;;1.30;;
38123;SDS011;23934;47.998;9.832;2022-12-29T05:47:51;2.85;;;1.10;;
38123;SDS011;23934;47.998;9.832;2022-12-29T05:50:16;7.40;;;1.23;;
38123;SDS011;23934;47.998;9.832;2022-12-29T05:52:42;4.90;;;1.08;;
38123;SDS011;23934;47.998;9.832;2022-12-29T05:55:08;5.43;;;1.48;;
38123;SDS011;23934;47.998;9.832;2022-12-29T05:57:34;3.80;;;0.77;;
38123;SDS011;23934;47.998;9.832;2022-12-29T06:00:01;2.30;;;0.82;;
38123;SDS011;23934;47.998;9.832;2022-12-29T06:02:27;2.22;;;0.80;;
38123;SDS011;23934;47.998;9.832;2022-12-29T06:04:53;2.05;;;1.00;;
38123;SDS011;23934;47.998;9.832;2022-12-29T06:07:18;2.45;;;0.85;;
38123;SDS011;23934;47.998;9.832;2022-12-29T06:09:46;4.75;;;1.25;;
38123;SDS011;23934;47.998;9.832;2022-12-29T06:12:12;1.20;;;0.80;;
38123;SDS011;23934;47.998;9.832;2022-12-29T06:14:38;2.72;;;1.58;;
38123;SDS011;23934;47.998;9.832;2022-12-29T06:17:03;2.92;;;1.00;;
38123;SDS011;23934;47.998;9.832;2022-12-29T06:19:29;3.35;;;1.08;;
38123;SDS011;23934;47.998;9.832;2022-12-29T06:21:55;3.17;;;0.90;;
38123;SDS011;23934;47.998;9.832;2022-12-29T06:24:21;3.80;;;1.13;;
38123;SDS011;23934;47.998;9.832;2022-12-29T06:26:47;1.35;;;0.88;;
38123;SDS011;23934;47.998;9.832;2022-12-29T06:29:13;2.85;;;0.80;;
38123;SDS011;23934;47.998;9.832;2022-12-29T06:31:43;13.65;;;1.35;;
38123;SDS011;23934;47.998;9.832;2022-12-29T06:34:10;2.67;;;1.10;;
38123;SDS011;23934;47.998;9.832;2022-12-29T06:36:36;3.78;;;0.88;;
38123;SDS011;23934;47.998;9.832;2022-12-29T06:39:02;2.97;;;0.90;;
38123;SDS011;23934;47.998;9.832;2022-12-29T06:41:28;3.38;;;1.00;;
38123;SDS011;23934;47.998;9.832;2022-12-29T06:43:54;2.97;;;1.35;;
38123;SDS011;23934;47.998;9.832;2022-12-29T06:46:20;2.25;;;1.20;;
38123;SDS011;23934;47.998;9.832;2022-12-29T06:48:46;3.42;;;1.25;;
38123;SDS011;23934;47.998;9.832;2022-12-29T06:51:12;1.27;;;0.82;;
38123;SDS011;23934;47.998;9.832;2022-12-29T06:53:38;5.13;;;1.00;;
38123;SDS011;23934;47.998;9.832;2022-12-29T06:56:04;2.38;;;0.88;;
38123;SDS011;23934;47.998;9.832;2022-12-29T06:58:30;3.67;;;0.90;;
38123;SDS011;23934;47.998;9.832;2022-12-29T07:00:56;2.80;;;0.80;;
38123;SDS011;23934;47.998;9.832;2022-12-29T07:03:22;2.05;;;0.95;;
38123;SDS011;23934;47.998;9.832;2022-12-29T07:05:48;2.33;;;1.35;;
38123;SDS011;23934;47.998;9.832;2022-12-29T07:08:14;7.50;;;1.40;;
38123;SDS011;23934;47.998;9.832;2022-12-29T07:10:40;2.92;;;1.15;;
38123;SDS011;23934;47.998;9.832;2022-12-29T07:13:06;2.95;;;1.73;;
38123;SDS011;23934;47.998;9.832;2022-12-29T07:15:38;0.73;;;0.65;;
38123;SDS011;23934;47.998;9.832;2022-12-29T07:18:04;3.63;;;1.02;;
38123;SDS011;23934;47.998;9.832;2022-12-29T07:20:30;3.13;;;1.20;;
38123;SDS011;23934;47.998;9.832;2022-12-29T07:22:56;3.50;;;0.90;;
38123;SDS011;23934;47.998;9.832;2022-12-29T07:25:22;2.00;;;0.90;;
38123;SDS011;23934;47.998;9.832;2022-12-29T07:27:48;1.98;;;1.17;;
38123;SDS011;23934;47.998;9.832;2022-12-29T07:30:14;2.83;;;1.38;;
38123;SDS011;23934;47.998;9.832;2022-12-29T07:32:40;2.60;;;1.13;;
38123;SDS011;23934;47.998;9.832;2022-12-29T07:35:06;2.95;;;1.15;;
38123;SDS011;23934;47.998;9.832;2022-12-29T07:37:33;1.85;;;0.93;;
38123;SDS011;23934;47.998;9.832;2022-12-29T07:39:59;2.13;;;1.00;;
38123;SDS011;23934;47.998;9.832;2022-12-29T07:42:25;2.30;;;0.93;;
38123;SDS011;23934;47.998;9.832;2022-12-29T07:44:51;2.85;;;1.10;;
38123;SDS011;23934;47.998;9.832;2022-12-29T07:47:17;3.70;;;1.35;;
38123;SDS011;23934;47.998;9.832;2022-12-29T07:49:43;2.40;;;1.52;;
38123;SDS011;23934;47.998;9.832;2022-12-29T07:52:09;7.35;;;1.30;;
38123;SDS011;23934;47.998;9.832;2022-12-29T07:54:35;3.25;;;1.40;;
38123;SDS011;23934;47.998;9.832;2022-12-29T07:57:01;3.80;;;1.35;;
38123;SDS011;23934;47.998;9.832;2022-12-29T07:59:27;6.07;;;1.38;;
38123;SDS011;23934;47.998;9.832;2022-12-29T08:01:53;5.80;;;2.22;;
38123;SDS011;23934;47.998;9.832;2022-12-29T08:04:19;6.50;;;1.00;;
38123;SDS011;23934;47.998;9.832;2022-12-29T08:06:45;3.75;;;1.25;;
38123;SDS011;23934;47.998;9.832;2022-12-29T08:09:11;4.72;;;1.50;;
38123;SDS011;23934;47.998;9.832;2022-12-29T08:11:37;4.47;;;2.05;;
38123;SDS011;23934;47.998;9.832;2022-12-29T08:14:03;4.18;;;1.33;;
38123;SDS011;23934;47.998;9.832;2022-12-29T08:16:29;1.50;;;1.05;;
38123;SDS011;23934;47.998;9.832;2022-12-29T08:18:56;6.28;;;1.20;;
38123;SDS011;23934;47.998;9.832;2022-12-29T08:21:22;2.15;;;1.10;;
38123;SDS011;23934;47.998;9.832;2022-12-29T08:23:48;4.55;;;1.40;;
38123;SDS011;23934;47.998;9.832;2022-12-29T08:26:14;6.28;;;2.25;;
38123;SDS011;23934;47.998;9.832;2022-12-29T08:28:40;5.35;;;1.88;;
38123;SDS011;23934;47.998;9.832;2022-12-29T08:31:06;4.63;;;1.25;;
38123;SDS011;23934;47.998;9.832;2022-12-29T08:33:32;2.80;;;1.00;;
38123;SDS011;23934;47.998;9.832;2022-12-29T08:35:59;1.73;;;0.93;;
38123;SDS011;23934;47.998;9.832;2022-12-29T08:38:25;3.08;;;1.10;;
38123;SDS011;23934;47.998;9.832;2022-12-29T08:40:52;2.92;;;1.00;;
38123;SDS011;23934;47.998;9.832;2022-12-29T08:43:18;1.92;;;0.90;;
38123;SDS011;23934;47.998;9.832;2022-12-29T08:45:44;2.50;;;1.08;;
38123;SDS011;23934;47.998;9.832;2022-12-29T08:48:09;3.83;;;0.80;;
38123;SDS011;23934;47.998;9.832;2022-12-29T08:50:35;3.38;;;1.08;;
38123;SDS011;23934;47.998;9.832;2022-12-29T08:53:01;2.20;;;1.08;;
38123;SDS011;23934;47.998;9.832;2022-12-29T08:55:27;3.42;;;0.90;;
38123;SDS011;23934;47.998;9.832;2022-12-29T08:57:53;2.22;;;1.30;;
38123;SDS011;23934;47.998;9.832;2022-12-29T09:00:19;3.17;;;1.40;;
38123;SDS011;23934;47.998;9.832;2022-12-29T09:02:45;3.60;;;1.42;;
38123;SDS011;23934;47.998;9.832;2022-12-29T09:05:11;3.53;;;0.73;;
38123;SDS011;23934;47.998;9.832;2022-12-29T09:07:37;0.95;;;0.70;;
38123;SDS011;23934;47.998;9.832;2022-12-29T09:10:04;1.50;;;0.80;;
38123;SDS011;23934;47.998;9.832;2022-12-29T09:12:30;1.38;;;0.98;;
38123;SDS011;23934;47.998;9.832;2022-12-29T09:14:56;1.65;;;0.82;;
38123;SDS011;23934;47.998;9.832;2022-12-29T09:17:22;1.25;;;0.60;;
38123;SDS011;23934;47.998;9.832;2022-12-29T09:20:08;2.83;;;1.38;;
38123;SDS011;23934;47.998;9.832;2022-12-29T09:22:34;2.90;;;0.95;;
38123;SDS011;23934;47.998;9.832;2022-12-29T09:25:00;2.58;;;1.25;;
38123;SDS011;23934;47.998;9.832;2022-12-29T09:27:26;5.45;;;1.27;;
38123;SDS011;23934;47.998;9.832;2022-12-29T09:29:52;1.33;;;1.00;;
38123;SDS011;23934;47.998;9.832;2022-12-29T09:32:18;3.08;;;1.13;;
38123;SDS011;23934;47.998;9.832;2022-12-29T09:34:44;1.15;;;0.93;;
38123;SDS011;23934;47.998;9.832;2022-12-29T09:37:10;1.67;;;0.85;;
38123;SDS011;23934;47.998;9.832;2022-12-29T09:39:36;3.28;;;0.85;;
38123;SDS011;23934;47.998;9.832;2022-12-29T09:42:13;2.15;;;1.20;;
38123;SDS011;23934;47.998;9.832;2022-12-29T09:47:27;3.92;;;1.40;;
38123;SDS011;23934;47.998;9.832;2022-12-29T09:52:20;1.45;;;0.90;;
38123;SDS011;23934;47.998;9.832;2022-12-29T09:54:56;1.95;;;0.88;;
38123;SDS011;23934;47.998;9.832;2022-12-29T09:57:24;1.55;;;0.88;;
38123;SDS011;23934;47.998;9.832;2022-12-29T09:59:52;4.90;;;0.93;;
38123;SDS011;23934;47.998;9.832;2022-12-29T10:02:31;1.17;;;0.68;;
38123;SDS011;23934;47.998;9.832;2022-12-29T10:04:57;1.92;;;0.90;;
38123;SDS011;23934;47.998;9.832;2022-12-29T10:07:26;1.83;;;0.90;;
38123;SDS011;23934;47.998;9.832;2022-12-29T10:10:07;2.08;;;0.80;;
38123;SDS011;23934;47.998;9.832;2022-12-29T10:17:45;2.30;;;0.70;;
38123;SDS011;23934;47.998;9.832;2022-12-29T10:25:29;6.85;;;2.38;;
38123;SDS011;23934;47.998;9.832;2022-12-29T10:27:56;15.18;;;4.15;;
38123;SDS011;23934;47.998;9.832;2022-12-29T10:30:24;2.17;;;1.33;;
38123;SDS011;23934;47.998;9.832;2022-12-29T10:32:54;17.17;;;4.30;;
38123;SDS011;23934;47.998;9.832;2022-12-29T10:35:23;5.72;;;1.95;;
38123;SDS011;23934;47.998;9.832;2022-12-29T10:41:07;3.70;;;1.45;;
38123;SDS011;23934;47.998;9.832;2022-12-29T10:45:49;9.48;;;1.92;;
38123;SDS011;23934;47.998;9.832;2022-12-29T10:48:19;3.28;;;1.45;;
38123;SDS011;23934;47.998;9.832;2022-12-29T10:50:45;2.15;;;1.40;;
38123;SDS011;23934;47.998;9.832;2022-12-29T10:53:15;1.20;;;0.77;;
38123;SDS011;23934;47.998;9.832;2022-12-29T10:55:42;10.68;;;0.85;;
38123;SDS011;23934;47.998;9.832;2022-12-29T10:58:10;4.28;;;1.17;;
38123;SDS011;23934;47.998;9.832;2022-12-29T11:00:38;2.75;;;1.05;;
38123;SDS011;23934;47.998;9.832;2022-12-29T11:03:26;4.00;;;1.23;;
38123;SDS011;23934;47.998;9.832;2022-12-29T11:08:21;2.00;;;0.80;;
38123;SDS011;23934;47.998;9.832;2022-12-29T11:11:10;1.98;;;0.98;;
38123;SDS011;23934;47.998;9.832;2022-12-29T11:13:49;5.93;;;1.40;;
38123;SDS011;23934;47.998;9.832;2022-12-29T11:16:21;2.53;;;1.10;;
38123;SDS011;23934;47.998;9.832;2022-12-29T11:18:52;3.25;;;0.95;;
38123;SDS011;23934;47.998;9.832;2022-12-29T11:21:30;9.57;;;1.17;;
38123;SDS011;23934;47.998;9.832;2022-12-29T11:23:59;3.65;;;1.20;;
38123;SDS011;23934;47.998;9.832;2022-12-29T11:26:25;6.50;;;1.70;;
38123;SDS011;23934;47.998;9.832;2022-12-29T11:31:30;3.25;;;1.30;;
38123;SDS011;23934;47.998;9.832;2022-12-29T11:33:56;4.18;;;1.23;;
38123;SDS011;23934;47.998;9.832;2022-12-29T11:36:22;2.50;;;1.30;;
38123;SDS011;23934;47.998;9.832;2022-12-29T11:38:50;2.35;;;0.80;;
38123;SDS011;23934;47.998;9.832;2022-12-29T11:41:21;9.70;;;1.17;;
38123;SDS011;23934;47.998;9.832;2022-12-29T11:43:48;1.98;;;0.95;;
38123;SDS011;23934;47.998;9.832;2022-12-29T11:46:14;5.70;;;1.08;;
38123;SDS011;23934;47.998;9.832;2022-12-29T11:48:42;3.70;;;1.30;;
38123;SDS011;23934;47.998;9.832;2022-12-29T11:51:09;3.38;;;1.45;;
38123;SDS011;23934;47.998;9.832;2022-12-29T11:53:42;5.45;;;1.17;;
38123;SDS011;23934;47.998;9.832;2022-12-29T11:56:09;2.08;;;0.95;;
38123;SDS011;23934;47.998;9.832;2022-12-29T11:58:37;2.65;;;0.85;;
38123;SDS011;23934;47.998;9.832;2022-12-29T12:03:29;4.43;;;1.08;;
38123;SDS011;23934;47.998;9.832;2022-12-29T12:05:57;3.83;;;1.13;;
38123;SDS011;23934;47.998;9.832;2022-12-29T12:11:16;3.38;;;1.52;;
38123;SDS011;23934;47.998;9.832;2022-12-29T12:13:58;4.70;;;1.25;;
38123;SDS011;23934;47.998;9.832;2022-12-29T12:16:31;2.40;;;1.13;;
38123;SDS011;23934;47.998;9.832;2022-12-29T12:19:23;3.97;;;1.23;;
38123;SDS011;23934;47.998;9.832;2022-12-29T12:21:46;2.85;;;1.27;;
38123;SDS011;23934;47.998;9.832;2022-12-29T12:26:59;2.78;;;1.15;;
38123;SDS011;23934;47.998;9.832;2022-12-29T12:29:32;4.03;;;1.25;;
38123;SDS011;23934;47.998;9.832;2022-12-29T12:34:39;4.95;;;1.05;;
38123;SDS011;23934;47.998;9.832;2022-12-29T12:37:29;3.85;;;1.25;;
38123;SDS011;23934;47.998;9.832;2022-12-29T12:53:12;7.05;;;1.30;;
38123;SDS011;23934;47.998;9.832;2022-12-29T12:58:19;4.55;;;1.10;;
38123;SDS011;23934;47.998;9.832;2022-12-29T13:08:39;3.13;;;1.30;;
38123;SDS011;23934;47.998;9.832;2022-12-29T13:16:19;3.38;;;1.27;;
38123;SDS011;23934;47.998;9.832;2022-12-29T13:21:43;1.73;;;1.13;;
38123;SDS011;23934;47.998;9.832;2022-12-29T13:26:50;2.40;;;1.00;;
38123;SDS011;23934;47.998;9.832;2022-12-29T13:29:36;4.75;;;1.17;;
38123;SDS011;23934;47.998;9.832;2022-12-29T13:32:23;2.15;;;1.13;;
38123;SDS011;23934;47.998;9.832;2022-12-29T13:37:22;1.67;;;1.00;;
38123;SDS011;23934;47.998;9.832;2022-12-29T13:39:51;4.15;;;1.10;;
38123;SDS011;23934;47.998;9.832;2022-12-29T13:42:18;2.13;;;1.08;;
38123;SDS011;23934;47.998;9.832;2022-12-29T13:44:46;3.53;;;1.20;;
38123;SDS011;23934;47.998;9.832;2022-12-29T13:47:22;1.83;;;1.10;;
38123;SDS011;23934;47.998;9.832;2022-12-29T13:49:50;2.20;;;1.15;;
38123;SDS011;23934;47.998;9.832;2022-12-29T13:54:45;5.05;;;1.45;;
38123;SDS011;23934;47.998;9.832;2022-12-29T14:00:00;1.92;;;0.80;;
38123;SDS011;23934;47.998;9.832;2022-12-29T14:02:31;2.80;;;1.20;;
38123;SDS011;23934;47.998;9.832;2022-12-29T14:05:01;1.65;;;1.00;;
38123;SDS011;23934;47.998;9.832;2022-12-29T14:07:28;6.78;;;1.83;;
38123;SDS011;23934;47.998;9.832;2022-12-29T14:09:55;2.85;;;1.35;;
38123;SDS011;23934;47.998;9.832;2022-12-29T14:14:47;7.47;;;1.67;;
38123;SDS011;23934;47.998;9.832;2022-12-29T14:17:16;2.30;;;1.27;;
38123;SDS011;23934;47.998;9.832;2022-12-29T14:19:43;1.83;;;0.95;;
38123;SDS011;23934;47.998;9.832;2022-12-29T14:22:10;2.40;;;1.00;;
38123;SDS011;23934;47.998;9.832;2022-12-29T14:24:41;4.43;;;1.20;;
38123;SDS011;23934;47.998;9.832;2022-12-29T14:32:35;3.40;;;1.20;;
38123;SDS011;23934;47.998;9.832;2022-12-29T14:37:30;3.25;;;1.50;;
38123;SDS011;23934;47.998;9.832;2022-12-29T14:40:04;2.05;;;0.93;;
38123;SDS011;23934;47.998;9.832;2022-12-29T14:42:31;4.75;;;1.30;;
38123;SDS011;23934;47.998;9.832;2022-12-29T14:45:08;2.53;;;1.10;;
38123;SDS011;23934;47.998;9.832;2022-12-29T14:47:48;1.83;;;1.05;;
38123;SDS011;23934;47.998;9.832;2022-12-29T14:50:16;1.92;;;0.93;;
38123;SDS011;23934;47.998;9.832;2022-12-29T14:52:49;4.28;;;1.23;;
38123;SDS011;23934;47.998;9.832;2022-12-29T14:57:52;2.30;;;1.10;;
38123;SDS011;23934;47.998;9.832;2022-12-29T15:00:27;3.55;;;1.20;;
38123;SDS011;23934;47.998;9.832;2022-12-29T15:05:32;1.77;;;0.63;;
38123;SDS011;23934;47.998;9.832;2022-12-29T15:07:59;3.60;;;1.08;;
38123;SDS011;23934;47.998;9.832;2022-12-29T15:10:26;2.45;;;0.98;;
38123;SDS011;23934;47.998;9.832;2022-12-29T15:15:26;7.05;;;1.52;;
38123;SDS011;23934;47.998;9.832;2022-12-29T15:17:55;2.60;;;1.02;;
38123;SDS011;23934;47.998;9.832;2022-12-29T15:20:23;8.10;;;1.52;;
38123;SDS011;23934;47.998;9.832;2022-12-29T15:22:52;2.45;;;1.00;;
38123;SDS011;23934;47.998;9.832;2022-12-29T15:25:18;1.70;;;1.00;;
38123;SDS011;23934;47.998;9.832;2022-12-29T15:27:54;4.43;;;1.60;;
38123;SDS011;23934;47.998;9.832;2022-12-29T15:30:21;9.30;;;3.75;;
38123;SDS011;23934;47.998;9.832;2022-12-29T15:32:50;14.73;;;3.65;;
38123;SDS011;23934;47.998;9.832;2022-12-29T15:37:52;17.38;;;5.60;;
38123;SDS011;23934;47.998;9.832;2022-12-29T15:40:22;9.10;;;3.83;;
38123;SDS011;23934;47.998;9.832;2022-12-29T15:42:52;15.60;;;4.03;;
38123;SDS011;23934;47.998;9.832;2022-12-29T15:45:21;6.93;;;2.38;;
38123;SDS011;23934;47.998;9.832;2022-12-29T15:47:51;4.47;;;1.80;;
38123;SDS011;23934;47.998;9.832;2022-12-29T15:50:24;9.57;;;2.45;;
38123;SDS011;23934;47.998;9.832;2022-12-29T15:55:18;18.58;;;5.13;;
38123;SDS011;23934;47.998;9.832;2022-12-29T15:57:45;41.65;;;8.57;;
38123;SDS011;23934;47.998;9.832;2022-12-29T16:00:22;21.85;;;5.60;;
38123;SDS011;23934;47.998;9.832;2022-12-29T16:02:48;27.50;;;7.18;;
38123;SDS011;23934;47.998;9.832;2022-12-29T16:05:15;31.55;;;8.75;;
38123;SDS011;23934;47.998;9.832;2022-12-29T16:07:51;61.97;;;14.95;;
38123;SDS011;23934;47.998;9.832;2022-12-29T16:10:25;52.03;;;12.50;;
38123;SDS011;23934;47.998;9.832;2022-12-29T16:12:54;24.80;;;6.75;;
38123;SDS011;23934;47.998;9.832;2022-12-29T16:15:20;7.53;;;3.50;;
38123;SDS011;23934;47.998;9.832;2022-12-29T16:17:47;10.85;;;4.32;;
38123;SDS011;23934;47.998;9.832;2022-12-29T16:20:17;6.15;;;2.80;;
38123;SDS011;23934;47.998;9.832;2022-12-29T16:22:48;3.78;;;2.00;;
38123;SDS011;23934;47.998;9.832;2022-12-29T16:27:43;7.20;;;3.65;;
38123;SDS011;23934;47.998;9.832;2022-12-29T16:32:45;6.25;;;1.73;;
38123;SDS011;23934;47.998;9.832;2022-12-29T16:35:19;9.32;;;2.47;;
38123;SDS011;23934;47.998;9.832;2022-12-29T16:37:45;9.23;;;3.83;;
38123;SDS011;23934;47.998;9.832;2022-12-29T16:42:47;7.30;;;3.17;;
38123;SDS011;23934;47.998;9.832;2022-12-29T16:47:42;6.60;;;2.72;;
38123;SDS011;23934;47.998;9.832;2022-12-29T16:50:10;3.45;;;1.80;;
38123;SDS011;23934;47.998;9.832;2022-12-29T16:52:37;12.93;;;3.90;;
38123;SDS011;23934;47.998;9.832;2022-12-29T16:55:03;6.90;;;2.65;;
38123;SDS011;23934;47.998;9.832;2022-12-29T16:57:31;8.38;;;3.42;;
38123;SDS011;23934;47.998;9.832;2022-12-29T17:00:17;17.23;;;6.53;;
38123;SDS011;23934;47.998;9.832;2022-12-29T17:02:43;7.53;;;4.25;;
38123;SDS011;23934;47.998;9.832;2022-12-29T17:05:13;15.57;;;7.60;;
38123;SDS011;23934;47.998;9.832;2022-12-29T17:07:39;3.40;;;1.98;;
38123;SDS011;23934;47.998;9.832;2022-12-29T17:10:05;3.08;;;2.08;;
38123;SDS011;23934;47.998;9.832;2022-12-29T17:12:32;9.98;;;2.40;;
38123;SDS011;23934;47.998;9.832;2022-12-29T17:14:59;4.35;;;2.20;;
38123;SDS011;23934;47.998;9.832;2022-12-29T17:19:52;4.50;;;1.63;;